sensor_id;sensor_type;location;lat;lon;timestamp;temperature;humidity
18597;DHT22;9428;50.950;6.912;2024-03-23T00:52:40;9.30;99.90
18597;DHT22;9428;50.950;6.912;2024-03-23T00:55:27;9.40;99.90
18597;DHT22;9428;50.950;6.912;2024-03-23T00:58:14;9.00;99.90
18597;DHT22;9428;50.950;6.912;2024-03-23T01:01:01;9.10;99.90
18597;DHT22;9428;50.950;6.912;2024-03-23T01:03:49;9.20;99.90
18597;DHT22;9428;50.950;6.912;2024-03-23T01:06:36;9.30;99.90
18597;DHT22;9428;50.950;6.912;2024-03-23T01:09:24;9.20;99.90
18597;DHT22;9428;50.950;6.912;2024-03-23T01:12:11;9.40;99.90
18597;DHT22;9428;50.950;6.912;2024-03-23T01:14:58;9.30;99.90
18597;DHT22;9428;50.950;6.912;2024-03-23T01:17:44;9.10;99.90
18597;DHT22;9428;50.950;6.912;2024-03-23T01:20:32;9.00;99.90
18597;DHT22;9428;50.950;6.912;2024-03-23T01:23:18;8.80;99.90
18597;DHT22;9428;50.950;6.912;2024-03-23T01:26:07;8.80;99.90
18597;DHT22;9428;50.950;6.912;2024-03-23T01:28:53;8.70;99.90
18597;DHT22;9428;50.950;6.912;2024-03-23T01:31:41;8.70;99.90
18597;DHT22;9428;50.950;6.912;2024-03-23T01:34:27;8.90;99.90
18597;DHT22;9428;50.950;6.912;2024-03-23T01:37:15;9.10;99.90
18597;DHT22;9428;50.950;6.912;2024-03-23T01:40:01;8.60;99.90
18597;DHT22;9428;50.950;6.912;2024-03-23T01:42:57;8.70;99.90
18597;DHT22;9428;50.950;6.912;2024-03-23T01:45:44;8.60;99.90
18597;DHT22;9428;50.950;6.912;2024-03-23T01:48:31;8.60;99.90
18597;DHT22;9428;50.950;6.912;2024-03-23T01:51:18;9.50;99.90
18597;DHT22;9428;50.950;6.912;2024-03-23T01:54:06;8.60;99.90
18597;DHT22;9428;50.950;6.912;2024-03-23T01:56:54;8.50;99.90
18597;DHT22;9428;50.950;6.912;2024-03-23T01:59:43;8.40;99.90
18597;DHT22;9428;50.950;6.912;2024-03-23T02:02:29;8.40;99.90
18597;DHT22;9428;50.950;6.912;2024-03-23T02:05:16;8.40;99.90
18597;DHT22;9428;50.950;6.912;2024-03-23T02:08:03;8.50;99.90
18597;DHT22;9428;50.950;6.912;2024-03-23T02:10:51;8.30;99.90
18597;DHT22;9428;50.950;6.912;2024-03-23T02:13:37;8.40;99.90
18597;DHT22;9428;50.950;6.912;2024-03-23T02:16:26;8.50;99.90
18597;DHT22;9428;50.950;6.912;2024-03-23T02:19:12;8.40;99.90
18597;DHT22;9428;50.950;6.912;2024-03-23T02:22:00;8.50;99.90
18597;DHT22;9428;50.950;6.912;2024-03-23T02:24:48;8.40;99.90
18597;DHT22;9428;50.950;6.912;2024-03-23T02:27:35;8.50;99.90
18597;DHT22;9428;50.950;6.912;2024-03-23T02:30:25;8.30;99.90
18597;DHT22;9428;50.950;6.912;2024-03-23T02:33:12;7.70;99.90
18597;DHT22;9428;50.950;6.912;2024-03-23T02:35:58;7.60;99.90
18597;DHT22;9428;50.950;6.912;2024-03-23T02:38:46;7.50;99.90
18597;DHT22;9428;50.950;6.912;2024-03-23T02:41:33;7.40;99.90
18597;DHT22;9428;50.950;6.912;2024-03-23T02:44:20;7.60;99.90
18597;DHT22;9428;50.950;6.912;2024-03-23T02:47:07;7.60;99.90
18597;DHT22;9428;50.950;6.912;2024-03-23T02:49:55;7.60;99.90
18597;DHT22;9428;50.950;6.912;2024-03-23T02:52:41;7.50;99.90
18597;DHT22;9428;50.950;6.912;2024-03-23T02:55:28;7.60;99.90
18597;DHT22;9428;50.950;6.912;2024-03-23T02:58:16;7.60;99.90
18597;DHT22;9428;50.950;6.912;2024-03-23T03:01:03;7.70;99.90
18597;DHT22;9428;50.950;6.912;2024-03-23T03:03:50;7.60;99.90
18597;DHT22;9428;50.950;6.912;2024-03-23T03:06:37;7.80;99.90
18597;DHT22;9428;50.950;6.912;2024-03-23T03:09:24;7.60;99.90
18597;DHT22;9428;50.950;6.912;2024-03-23T03:12:11;7.60;99.90
18597;DHT22;9428;50.950;6.912;2024-03-23T03:14:59;8.00;99.90
18597;DHT22;9428;50.950;6.912;2024-03-23T03:17:46;7.90;99.90
18597;DHT22;9428;50.950;6.912;2024-03-23T03:20:32;7.80;99.90
18597;DHT22;9428;50.950;6.912;2024-03-23T03:23:20;7.70;99.90
18597;DHT22;9428;50.950;6.912;2024-03-23T03:26:07;7.70;99.90
18597;DHT22;9428;50.950;6.912;2024-03-23T03:28:54;7.50;99.90
18597;DHT22;9428;50.950;6.912;2024-03-23T03:31:42;7.70;99.90
18597;DHT22;9428;50.950;6.912;2024-03-23T03:34:30;7.80;99.90
18597;DHT22;9428;50.950;6.912;2024-03-23T03:37:16;8.30;99.90
18597;DHT22;9428;50.950;6.912;2024-03-23T03:40:04;7.80;99.90
18597;DHT22;9428;50.950;6.912;2024-03-23T03:42:50;7.70;99.90
18597;DHT22;9428;50.950;6.912;2024-03-23T03:45:37;7.70;99.90
18597;DHT22;9428;50.950;6.912;2024-03-23T03:48:25;7.50;99.90
18597;DHT22;9428;50.950;6.912;2024-03-23T03:51:13;7.80;99.90
18597;DHT22;9428;50.950;6.912;2024-03-23T03:54:00;7.90;99.90
18597;DHT22;9428;50.950;6.912;2024-03-23T03:56:46;7.90;99.90
18597;DHT22;9428;50.950;6.912;2024-03-23T03:59:34;7.70;99.90
18597;DHT22;9428;50.950;6.912;2024-03-23T04:02:20;7.60;99.90
18597;DHT22;9428;50.950;6.912;2024-03-23T04:05:09;7.70;99.90
18597;DHT22;9428;50.950;6.912;2024-03-23T04:07:55;7.30;99.90
18597;DHT22;9428;50.950;6.912;2024-03-23T04:10:43;7.80;99.90
18597;DHT22;9428;50.950;6.912;2024-03-23T04:13:29;7.60;99.90
18597;DHT22;9428;50.950;6.912;2024-03-23T04:16:25;7.80;99.90
18597;DHT22;9428;50.950;6.912;2024-03-23T04:19:12;7.80;99.90
18597;DHT22;9428;50.950;6.912;2024-03-23T04:22:01;7.70;99.90
18597;DHT22;9428;50.950;6.912;2024-03-23T04:24:47;8.30;99.90
18597;DHT22;9428;50.950;6.912;2024-03-23T04:27:35;7.80;99.90
18597;DHT22;9428;50.950;6.912;2024-03-23T04:30:21;7.80;99.90
18597;DHT22;9428;50.950;6.912;2024-03-23T04:33:11;7.90;99.90
18597;DHT22;9428;50.950;6.912;2024-03-23T04:35:57;7.90;99.90
18597;DHT22;9428;50.950;6.912;2024-03-23T04:38:47;7.70;99.90
18597;DHT22;9428;50.950;6.912;2024-03-23T04:41:36;8.20;99.90
18597;DHT22;9428;50.950;6.912;2024-03-23T04:44:23;7.60;99.90
18597;DHT22;9428;50.950;6.912;2024-03-23T04:47:10;7.60;99.90
18597;DHT22;9428;50.950;6.912;2024-03-23T04:49:58;7.50;99.90
18597;DHT22;9428;50.950;6.912;2024-03-23T04:52:45;7.50;99.90
18597;DHT22;9428;50.950;6.912;2024-03-23T04:55:34;7.60;99.90
18597;DHT22;9428;50.950;6.912;2024-03-23T04:58:21;7.60;99.90
18597;DHT22;9428;50.950;6.912;2024-03-23T05:01:08;7.70;99.90
18597;DHT22;9428;50.950;6.912;2024-03-23T05:03:55;7.80;99.90
18597;DHT22;9428;50.950;6.912;2024-03-23T05:06:41;7.90;99.90
18597;DHT22;9428;50.950;6.912;2024-03-23T05:09:29;8.20;99.90
18597;DHT22;9428;50.950;6.912;2024-03-23T05:12:17;7.80;99.90
18597;DHT22;9428;50.950;6.912;2024-03-23T05:15:05;7.80;99.90
18597;DHT22;9428;50.950;6.912;2024-03-23T05:17:52;7.80;99.90
18597;DHT22;9428;50.950;6.912;2024-03-23T05:20:40;7.80;99.90
18597;DHT22;9428;50.950;6.912;2024-03-23T05:23:27;8.00;99.90
18597;DHT22;9428;50.950;6.912;2024-03-23T05:26:15;7.90;99.90
18597;DHT22;9428;50.950;6.912;2024-03-23T05:29:03;7.80;99.90
18597;DHT22;9428;50.950;6.912;2024-03-23T05:31:51;7.80;99.90
18597;DHT22;9428;50.950;6.912;2024-03-23T05:34:37;7.80;99.90
18597;DHT22;9428;50.950;6.912;2024-03-23T05:37:25;7.80;99.90
18597;DHT22;9428;50.950;6.912;2024-03-23T05:40:12;7.90;99.90
18597;DHT22;9428;50.950;6.912;2024-03-23T05:43:01;7.90;99.90
18597;DHT22;9428;50.950;6.912;2024-03-23T05:45:55;7.90;99.90
18597;DHT22;9428;50.950;6.912;2024-03-23T05:48:41;8.00;99.90
18597;DHT22;9428;50.950;6.912;2024-03-23T05:51:29;7.90;99.90
18597;DHT22;9428;50.950;6.912;2024-03-23T05:54:15;7.80;99.90
18597;DHT22;9428;50.950;6.912;2024-03-23T05:57:03;7.70;99.90
18597;DHT22;9428;50.950;6.912;2024-03-23T05:59:50;7.90;99.90
18597;DHT22;9428;50.950;6.912;2024-03-23T06:02:38;7.80;99.90
18597;DHT22;9428;50.950;6.912;2024-03-23T06:05:25;7.60;99.90
18597;DHT22;9428;50.950;6.912;2024-03-23T06:08:12;7.60;99.90
18597;DHT22;9428;50.950;6.912;2024-03-23T06:11:01;7.60;99.90
18597;DHT22;9428;50.950;6.912;2024-03-23T06:13:47;7.60;99.90
18597;DHT22;9428;50.950;6.912;2024-03-23T06:16:34;7.60;99.90
18597;DHT22;9428;50.950;6.912;2024-03-23T06:19:22;7.60;99.90
18597;DHT22;9428;50.950;6.912;2024-03-23T06:22:09;7.00;99.90
18597;DHT22;9428;50.950;6.912;2024-03-23T06:24:56;7.50;99.90
18597;DHT22;9428;50.950;6.912;2024-03-23T06:27:43;7.50;99.90
18597;DHT22;9428;50.950;6.912;2024-03-23T06:30:30;7.40;99.90
18597;DHT22;9428;50.950;6.912;2024-03-23T06:33:18;7.40;99.90
18597;DHT22;9428;50.950;6.912;2024-03-23T06:36:09;7.40;99.90
18597;DHT22;9428;50.950;6.912;2024-03-23T06:38:56;7.40;99.90
18597;DHT22;9428;50.950;6.912;2024-03-23T06:41:45;7.40;99.90
18597;DHT22;9428;50.950;6.912;2024-03-23T06:44:38;7.30;99.90
18597;DHT22;9428;50.950;6.912;2024-03-23T06:47:25;7.40;99.90
18597;DHT22;9428;50.950;6.912;2024-03-23T06:50:12;7.30;99.90
18597;DHT22;9428;50.950;6.912;2024-03-23T06:53:01;7.30;99.90
18597;DHT22;9428;50.950;6.912;2024-03-23T06:55:50;7.40;99.90
18597;DHT22;9428;50.950;6.912;2024-03-23T06:58:54;7.40;99.90
18597;DHT22;9428;50.950;6.912;2024-03-23T07:01:41;7.40;99.90
18597;DHT22;9428;50.950;6.912;2024-03-23T07:04:28;7.40;99.90
18597;DHT22;9428;50.950;6.912;2024-03-23T07:07:15;7.40;99.90
18597;DHT22;9428;50.950;6.912;2024-03-23T07:10:05;7.40;99.90
18597;DHT22;9428;50.950;6.912;2024-03-23T07:12:52;7.50;99.90
18597;DHT22;9428;50.950;6.912;2024-03-23T07:15:39;7.60;99.90
18597;DHT22;9428;50.950;6.912;2024-03-23T07:18:25;7.60;99.90
18597;DHT22;9428;50.950;6.912;2024-03-23T07:21:14;7.50;99.90
18597;DHT22;9428;50.950;6.912;2024-03-23T07:24:00;7.60;99.90
18597;DHT22;9428;50.950;6.912;2024-03-23T07:26:49;7.40;99.90
18597;DHT22;9428;50.950;6.912;2024-03-23T07:29:37;7.70;99.90
18597;DHT22;9428;50.950;6.912;2024-03-23T07:32:24;7.70;99.90
18597;DHT22;9428;50.950;6.912;2024-03-23T07:35:12;7.70;99.90
18597;DHT22;9428;50.950;6.912;2024-03-23T07:38:00;7.80;99.90
18597;DHT22;9428;50.950;6.912;2024-03-23T07:40:51;7.70;99.90
18597;DHT22;9428;50.950;6.912;2024-03-23T07:43:43;7.80;99.90
18597;DHT22;9428;50.950;6.912;2024-03-23T07:46:30;7.90;99.90
18597;DHT22;9428;50.950;6.912;2024-03-23T07:49:17;8.10;99.90
18597;DHT22;9428;50.950;6.912;2024-03-23T07:52:04;8.00;99.90
18597;DHT22;9428;50.950;6.912;2024-03-23T07:54:52;8.20;99.90
18597;DHT22;9428;50.950;6.912;2024-03-23T07:57:38;7.70;99.90
18597;DHT22;9428;50.950;6.912;2024-03-23T08:00:27;8.10;99.90
18597;DHT22;9428;50.950;6.912;2024-03-23T08:03:13;8.10;99.90
18597;DHT22;9428;50.950;6.912;2024-03-23T08:06:07;8.10;99.90
18597;DHT22;9428;50.950;6.912;2024-03-23T08:08:55;8.20;99.90
18597;DHT22;9428;50.950;6.912;2024-03-23T08:11:46;8.20;99.90
18597;DHT22;9428;50.950;6.912;2024-03-23T08:14:33;8.70;99.90
18597;DHT22;9428;50.950;6.912;2024-03-23T08:17:22;8.20;99.90
18597;DHT22;9428;50.950;6.912;2024-03-23T08:20:09;8.50;99.90
18597;DHT22;9428;50.950;6.912;2024-03-23T08:22:57;8.60;99.90
18597;DHT22;9428;50.950;6.912;2024-03-23T08:25:43;8.70;99.90
18597;DHT22;9428;50.950;6.912;2024-03-23T08:28:31;8.70;99.90
18597;DHT22;9428;50.950;6.912;2024-03-23T08:31:17;8.80;99.90
18597;DHT22;9428;50.950;6.912;2024-03-23T08:34:06;8.80;99.90
18597;DHT22;9428;50.950;6.912;2024-03-23T08:36:52;8.60;99.90
18597;DHT22;9428;50.950;6.912;2024-03-23T08:39:39;8.70;99.90
18597;DHT22;9428;50.950;6.912;2024-03-23T08:42:26;8.60;99.90
18597;DHT22;9428;50.950;6.912;2024-03-23T08:45:13;8.50;99.90
18597;DHT22;9428;50.950;6.912;2024-03-23T08:47:59;8.20;99.90
18597;DHT22;9428;50.950;6.912;2024-03-23T08:51:00;8.60;99.90
18597;DHT22;9428;50.950;6.912;2024-03-23T08:53:46;8.70;99.90
18597;DHT22;9428;50.950;6.912;2024-03-23T08:56:34;8.70;99.90
18597;DHT22;9428;50.950;6.912;2024-03-23T08:59:20;8.70;99.90
18597;DHT22;9428;50.950;6.912;2024-03-23T09:02:09;8.90;99.90
18597;DHT22;9428;50.950;6.912;2024-03-23T09:04:56;9.10;99.90
18597;DHT22;9428;50.950;6.912;2024-03-23T09:07:51;9.00;99.90
18597;DHT22;9428;50.950;6.912;2024-03-23T09:10:39;9.10;99.90
18597;DHT22;9428;50.950;6.912;2024-03-23T09:13:27;9.20;99.90
18597;DHT22;9428;50.950;6.912;2024-03-23T09:16:16;9.10;99.90
18597;DHT22;9428;50.950;6.912;2024-03-23T09:19:06;9.10;99.90
18597;DHT22;9428;50.950;6.912;2024-03-23T09:21:53;9.00;99.90
18597;DHT22;9428;50.950;6.912;2024-03-23T09:24:41;8.90;99.90
18597;DHT22;9428;50.950;6.912;2024-03-23T09:27:29;8.80;99.90
18597;DHT22;9428;50.950;6.912;2024-03-23T09:30:15;8.80;99.90
18597;DHT22;9428;50.950;6.912;2024-03-23T09:33:03;8.70;99.90
18597;DHT22;9428;50.950;6.912;2024-03-23T09:35:49;8.80;99.90
18597;DHT22;9428;50.950;6.912;2024-03-23T09:38:37;8.80;99.90
18597;DHT22;9428;50.950;6.912;2024-03-23T09:41:24;9.00;99.90
18597;DHT22;9428;50.950;6.912;2024-03-23T09:44:12;8.90;99.90
18597;DHT22;9428;50.950;6.912;2024-03-23T09:46:59;9.00;99.90
18597;DHT22;9428;50.950;6.912;2024-03-23T09:49:46;8.90;99.90
18597;DHT22;9428;50.950;6.912;2024-03-23T09:52:32;9.00;99.90
18597;DHT22;9428;50.950;6.912;2024-03-23T09:55:20;9.00;99.90
18597;DHT22;9428;50.950;6.912;2024-03-23T09:58:08;9.40;99.90
18597;DHT22;9428;50.950;6.912;2024-03-23T10:00:59;10.10;99.90
18597;DHT22;9428;50.950;6.912;2024-03-23T10:03:45;9.70;99.90
18597;DHT22;9428;50.950;6.912;2024-03-23T10:06:32;9.70;99.90
18597;DHT22;9428;50.950;6.912;2024-03-23T10:09:20;9.70;99.90
18597;DHT22;9428;50.950;6.912;2024-03-23T10:12:09;9.70;99.90
18597;DHT22;9428;50.950;6.912;2024-03-23T10:14:57;9.50;99.90
18597;DHT22;9428;50.950;6.912;2024-03-23T10:17:45;9.40;99.90
18597;DHT22;9428;50.950;6.912;2024-03-23T10:20:31;9.30;99.90
18597;DHT22;9428;50.950;6.912;2024-03-23T10:23:18;9.20;99.90
18597;DHT22;9428;50.950;6.912;2024-03-23T10:26:18;9.70;99.90
18597;DHT22;9428;50.950;6.912;2024-03-23T10:29:07;9.80;99.90
18597;DHT22;9428;50.950;6.912;2024-03-23T10:32:00;9.50;99.90
18597;DHT22;9428;50.950;6.912;2024-03-23T10:34:54;9.40;99.90
18597;DHT22;9428;50.950;6.912;2024-03-23T10:37:41;9.30;99.90
18597;DHT22;9428;50.950;6.912;2024-03-23T10:40:29;9.70;99.90
18597;DHT22;9428;50.950;6.912;2024-03-23T10:43:17;9.10;99.90
18597;DHT22;9428;50.950;6.912;2024-03-23T10:46:22;8.90;99.90
18597;DHT22;9428;50.950;6.912;2024-03-23T10:49:17;8.80;99.90
18597;DHT22;9428;50.950;6.912;2024-03-23T10:52:04;8.80;99.90
18597;DHT22;9428;50.950;6.912;2024-03-23T10:54:52;8.90;99.90
18597;DHT22;9428;50.950;6.912;2024-03-23T10:57:42;9.10;99.90
18597;DHT22;9428;50.950;6.912;2024-03-23T11:00:30;9.30;99.90
18597;DHT22;9428;50.950;6.912;2024-03-23T11:03:36;9.10;99.90
18597;DHT22;9428;50.950;6.912;2024-03-23T11:06:35;8.90;99.90
18597;DHT22;9428;50.950;6.912;2024-03-23T11:09:39;9.00;99.90
18597;DHT22;9428;50.950;6.912;2024-03-23T11:12:27;9.70;99.90
18597;DHT22;9428;50.950;6.912;2024-03-23T11:15:16;9.50;99.90
18597;DHT22;9428;50.950;6.912;2024-03-23T11:18:03;9.30;99.90
18597;DHT22;9428;50.950;6.912;2024-03-23T11:20:51;9.70;99.90
18597;DHT22;9428;50.950;6.912;2024-03-23T11:23:39;9.80;99.90
18597;DHT22;9428;50.950;6.912;2024-03-23T11:26:26;9.20;99.90
18597;DHT22;9428;50.950;6.912;2024-03-23T11:29:14;8.60;99.90
18597;DHT22;9428;50.950;6.912;2024-03-23T11:32:02;8.40;99.90
18597;DHT22;9428;50.950;6.912;2024-03-23T11:34:50;8.30;99.90
18597;DHT22;9428;50.950;6.912;2024-03-23T11:37:38;8.30;99.90
18597;DHT22;9428;50.950;6.912;2024-03-23T11:40:26;8.20;99.90
18597;DHT22;9428;50.950;6.912;2024-03-23T11:43:14;8.20;99.90
18597;DHT22;9428;50.950;6.912;2024-03-23T11:46:01;8.30;99.90
18597;DHT22;9428;50.950;6.912;2024-03-23T11:48:50;8.40;99.90
18597;DHT22;9428;50.950;6.912;2024-03-23T11:51:38;8.30;99.90
18597;DHT22;9428;50.950;6.912;2024-03-23T11:54:25;9.20;99.90
18597;DHT22;9428;50.950;6.912;2024-03-23T11:57:14;8.80;99.90
18597;DHT22;9428;50.950;6.912;2024-03-23T12:00:00;8.30;99.90
18597;DHT22;9428;50.950;6.912;2024-03-23T12:02:48;8.10;99.90
18597;DHT22;9428;50.950;6.912;2024-03-23T12:05:35;7.90;99.90
18597;DHT22;9428;50.950;6.912;2024-03-23T12:08:23;7.90;99.90
18597;DHT22;9428;50.950;6.912;2024-03-23T12:11:12;8.00;99.90
18597;DHT22;9428;50.950;6.912;2024-03-23T12:14:01;8.10;99.90
18597;DHT22;9428;50.950;6.912;2024-03-23T12:16:48;8.40;99.90
18597;DHT22;9428;50.950;6.912;2024-03-23T12:19:34;8.30;99.90
18597;DHT22;9428;50.950;6.912;2024-03-23T12:22:22;8.60;99.90
18597;DHT22;9428;50.950;6.912;2024-03-23T12:25:08;8.80;99.90
18597;DHT22;9428;50.950;6.912;2024-03-23T12:27:58;8.50;99.90
18597;DHT22;9428;50.950;6.912;2024-03-23T12:30:46;8.20;99.90
18597;DHT22;9428;50.950;6.912;2024-03-23T12:33:33;8.10;99.90
18597;DHT22;9428;50.950;6.912;2024-03-23T12:36:19;7.80;99.90
18597;DHT22;9428;50.950;6.912;2024-03-23T12:39:07;7.60;99.90
18597;DHT22;9428;50.950;6.912;2024-03-23T12:41:53;7.50;99.90
18597;DHT22;9428;50.950;6.912;2024-03-23T12:44:40;7.20;99.90
18597;DHT22;9428;50.950;6.912;2024-03-23T12:47:29;7.30;99.90
18597;DHT22;9428;50.950;6.912;2024-03-23T12:50:17;7.50;99.90
18597;DHT22;9428;50.950;6.912;2024-03-23T12:53:04;7.90;99.90
18597;DHT22;9428;50.950;6.912;2024-03-23T12:55:50;7.40;99.90
18597;DHT22;9428;50.950;6.912;2024-03-23T12:58:38;7.60;99.90
18597;DHT22;9428;50.950;6.912;2024-03-23T13:01:24;7.50;99.90
18597;DHT22;9428;50.950;6.912;2024-03-23T13:04:13;7.90;99.90
18597;DHT22;9428;50.950;6.912;2024-03-23T13:07:00;8.00;99.90
18597;DHT22;9428;50.950;6.912;2024-03-23T13:09:49;8.20;99.90
18597;DHT22;9428;50.950;6.912;2024-03-23T13:12:36;8.50;99.90
18597;DHT22;9428;50.950;6.912;2024-03-23T13:15:23;8.50;99.90
18597;DHT22;9428;50.950;6.912;2024-03-23T13:18:09;8.40;99.90
18597;DHT22;9428;50.950;6.912;2024-03-23T13:20:58;8.60;99.90
18597;DHT22;9428;50.950;6.912;2024-03-23T13:23:47;9.00;99.90
18597;DHT22;9428;50.950;6.912;2024-03-23T13:26:36;9.00;99.90
18597;DHT22;9428;50.950;6.912;2024-03-23T13:29:23;9.10;99.90
18597;DHT22;9428;50.950;6.912;2024-03-23T13:32:11;9.30;99.90
18597;DHT22;9428;50.950;6.912;2024-03-23T13:34:57;9.40;99.90
18597;DHT22;9428;50.950;6.912;2024-03-23T13:37:46;9.50;99.90
18597;DHT22;9428;50.950;6.912;2024-03-23T13:40:34;9.70;99.90
18597;DHT22;9428;50.950;6.912;2024-03-23T13:43:20;10.00;99.90
18597;DHT22;9428;50.950;6.912;2024-03-23T13:46:07;9.70;99.90
18597;DHT22;9428;50.950;6.912;2024-03-23T13:48:55;9.60;99.90
18597;DHT22;9428;50.950;6.912;2024-03-23T13:51:46;9.70;99.90
18597;DHT22;9428;50.950;6.912;2024-03-23T13:54:35;9.20;99.90
18597;DHT22;9428;50.950;6.912;2024-03-23T13:57:23;9.40;99.90
18597;DHT22;9428;50.950;6.912;2024-03-23T14:00:12;9.30;99.90
18597;DHT22;9428;50.950;6.912;2024-03-23T14:03:00;9.00;99.90
18597;DHT22;9428;50.950;6.912;2024-03-23T14:05:46;8.90;99.90
18597;DHT22;9428;50.950;6.912;2024-03-23T14:08:34;8.50;99.90
18597;DHT22;9428;50.950;6.912;2024-03-23T14:11:23;8.50;99.90
18597;DHT22;9428;50.950;6.912;2024-03-23T14:14:12;8.60;99.90
18597;DHT22;9428;50.950;6.912;2024-03-23T14:16:58;8.20;99.90
18597;DHT22;9428;50.950;6.912;2024-03-23T14:19:46;9.50;99.90
18597;DHT22;9428;50.950;6.912;2024-03-23T14:22:32;8.80;99.90
18597;DHT22;9428;50.950;6.912;2024-03-23T14:25:19;8.80;99.90
18597;DHT22;9428;50.950;6.912;2024-03-23T14:28:09;8.80;99.90
18597;DHT22;9428;50.950;6.912;2024-03-23T14:31:00;8.60;99.90
18597;DHT22;9428;50.950;6.912;2024-03-23T14:33:47;8.90;99.90
18597;DHT22;9428;50.950;6.912;2024-03-23T14:36:34;9.00;99.90
18597;DHT22;9428;50.950;6.912;2024-03-23T14:39:23;9.10;99.90
18597;DHT22;9428;50.950;6.912;2024-03-23T14:42:10;9.20;99.90
18597;DHT22;9428;50.950;6.912;2024-03-23T14:44:58;9.50;99.90
18597;DHT22;9428;50.950;6.912;2024-03-23T14:47:45;9.20;99.90
18597;DHT22;9428;50.950;6.912;2024-03-23T14:50:31;9.00;99.90
18597;DHT22;9428;50.950;6.912;2024-03-23T14:53:20;8.80;99.90
18597;DHT22;9428;50.950;6.912;2024-03-23T14:56:07;8.50;99.90
18597;DHT22;9428;50.950;6.912;2024-03-23T14:58:56;8.20;99.90
18597;DHT22;9428;50.950;6.912;2024-03-23T15:01:44;7.70;99.90
18597;DHT22;9428;50.950;6.912;2024-03-23T15:04:31;7.30;99.90
18597;DHT22;9428;50.950;6.912;2024-03-23T15:07:17;7.20;99.90
18597;DHT22;9428;50.950;6.912;2024-03-23T15:10:06;7.10;99.90
18597;DHT22;9428;50.950;6.912;2024-03-23T15:12:54;7.30;99.90
18597;DHT22;9428;50.950;6.912;2024-03-23T15:15:40;7.70;99.90
18597;DHT22;9428;50.950;6.912;2024-03-23T15:18:31;7.60;99.90
18597;DHT22;9428;50.950;6.912;2024-03-23T15:21:18;7.90;99.90
18597;DHT22;9428;50.950;6.912;2024-03-23T15:24:08;7.90;99.90
18597;DHT22;9428;50.950;6.912;2024-03-23T15:26:56;7.90;99.90
18597;DHT22;9428;50.950;6.912;2024-03-23T15:29:43;7.90;99.90
18597;DHT22;9428;50.950;6.912;2024-03-23T15:32:31;7.90;99.90
18597;DHT22;9428;50.950;6.912;2024-03-23T15:35:19;8.00;99.90
18597;DHT22;9428;50.950;6.912;2024-03-23T15:38:09;8.20;99.90
18597;DHT22;9428;50.950;6.912;2024-03-23T15:40:55;7.60;99.90
18597;DHT22;9428;50.950;6.912;2024-03-23T15:43:43;8.80;99.90
18597;DHT22;9428;50.950;6.912;2024-03-23T15:46:29;8.20;99.90
18597;DHT22;9428;50.950;6.912;2024-03-23T15:49:16;8.20;99.90
18597;DHT22;9428;50.950;6.912;2024-03-23T15:52:05;8.10;99.90
18597;DHT22;9428;50.950;6.912;2024-03-23T15:54:52;7.70;99.90
18597;DHT22;9428;50.950;6.912;2024-03-23T15:57:40;8.20;99.90
18597;DHT22;9428;50.950;6.912;2024-03-23T16:00:26;8.70;99.90
18597;DHT22;9428;50.950;6.912;2024-03-23T16:03:15;8.10;99.90
18597;DHT22;9428;50.950;6.912;2024-03-23T16:06:02;8.10;99.90
18597;DHT22;9428;50.950;6.912;2024-03-23T16:08:51;8.20;99.90
18597;DHT22;9428;50.950;6.912;2024-03-23T16:11:40;8.20;99.90
18597;DHT22;9428;50.950;6.912;2024-03-23T16:14:28;8.10;99.90
18597;DHT22;9428;50.950;6.912;2024-03-23T16:17:14;7.90;99.90
18597;DHT22;9428;50.950;6.912;2024-03-23T16:20:03;7.70;99.90
18597;DHT22;9428;50.950;6.912;2024-03-23T16:22:59;7.80;99.90
18597;DHT22;9428;50.950;6.912;2024-03-23T16:25:48;7.70;99.90
18597;DHT22;9428;50.950;6.912;2024-03-23T16:28:41;7.60;99.90
18597;DHT22;9428;50.950;6.912;2024-03-23T16:31:29;7.70;99.90
18597;DHT22;9428;50.950;6.912;2024-03-23T16:34:16;7.90;99.90
18597;DHT22;9428;50.950;6.912;2024-03-23T16:37:03;7.80;99.90
18597;DHT22;9428;50.950;6.912;2024-03-23T16:39:50;7.70;99.90
18597;DHT22;9428;50.950;6.912;2024-03-23T16:42:39;7.90;99.90
18597;DHT22;9428;50.950;6.912;2024-03-23T16:45:25;7.80;99.90
18597;DHT22;9428;50.950;6.912;2024-03-23T16:48:13;7.90;99.90
18597;DHT22;9428;50.950;6.912;2024-03-23T16:51:00;7.90;99.90
18597;DHT22;9428;50.950;6.912;2024-03-23T16:53:49;7.90;99.90
18597;DHT22;9428;50.950;6.912;2024-03-23T16:56:35;8.10;99.90
18597;DHT22;9428;50.950;6.912;2024-03-23T16:59:27;8.00;99.90
18597;DHT22;9428;50.950;6.912;2024-03-23T17:02:16;7.90;99.90
18597;DHT22;9428;50.950;6.912;2024-03-23T17:05:04;8.00;99.90
18597;DHT22;9428;50.950;6.912;2024-03-23T17:07:51;8.00;99.90
18597;DHT22;9428;50.950;6.912;2024-03-23T17:10:39;7.80;99.90
18597;DHT22;9428;50.950;6.912;2024-03-23T17:13:25;8.80;99.90
18597;DHT22;9428;50.950;6.912;2024-03-23T17:16:14;8.00;99.90
18597;DHT22;9428;50.950;6.912;2024-03-23T17:19:02;7.80;99.90
18597;DHT22;9428;50.950;6.912;2024-03-23T17:21:50;7.90;99.90
18597;DHT22;9428;50.950;6.912;2024-03-23T17:24:36;8.00;99.90
18597;DHT22;9428;50.950;6.912;2024-03-23T17:27:24;7.90;99.90
18597;DHT22;9428;50.950;6.912;2024-03-23T17:30:11;7.90;99.90
18597;DHT22;9428;50.950;6.912;2024-03-23T17:33:03;7.90;99.90
18597;DHT22;9428;50.950;6.912;2024-03-23T17:35:50;7.80;99.90
18597;DHT22;9428;50.950;6.912;2024-03-23T17:38:37;7.70;99.90
18597;DHT22;9428;50.950;6.912;2024-03-23T17:41:24;7.80;99.90
18597;DHT22;9428;50.950;6.912;2024-03-23T17:44:11;7.90;99.90
18597;DHT22;9428;50.950;6.912;2024-03-23T17:46:59;7.90;99.90
18597;DHT22;9428;50.950;6.912;2024-03-23T17:49:46;8.10;99.90
18597;DHT22;9428;50.950;6.912;2024-03-23T17:52:35;7.80;99.90
18597;DHT22;9428;50.950;6.912;2024-03-23T17:55:21;7.90;99.90
18597;DHT22;9428;50.950;6.912;2024-03-23T17:58:09;7.90;99.90
18597;DHT22;9428;50.950;6.912;2024-03-23T18:00:56;8.00;99.90
18597;DHT22;9428;50.950;6.912;2024-03-23T18:03:43;8.00;99.90
18597;DHT22;9428;50.950;6.912;2024-03-23T18:06:31;7.90;99.90
18597;DHT22;9428;50.950;6.912;2024-03-23T18:09:18;7.90;99.90
18597;DHT22;9428;50.950;6.912;2024-03-23T18:12:06;7.90;99.90
18597;DHT22;9428;50.950;6.912;2024-03-23T18:14:53;7.90;99.90
18597;DHT22;9428;50.950;6.912;2024-03-23T18:17:43;7.90;99.90
18597;DHT22;9428;50.950;6.912;2024-03-23T18:20:29;7.90;99.90
18597;DHT22;9428;50.950;6.912;2024-03-23T18:23:18;7.60;99.90
18597;DHT22;9428;50.950;6.912;2024-03-23T18:26:04;7.50;99.90
18597;DHT22;9428;50.950;6.912;2024-03-23T18:28:52;8.40;99.90
18597;DHT22;9428;50.950;6.912;2024-03-23T18:31:38;7.90;99.90
18597;DHT22;9428;50.950;6.912;2024-03-23T18:34:26;7.60;99.90
18597;DHT22;9428;50.950;6.912;2024-03-23T18:37:13;7.60;99.90
18597;DHT22;9428;50.950;6.912;2024-03-23T18:40:04;7.20;99.90
18597;DHT22;9428;50.950;6.912;2024-03-23T18:42:52;7.20;99.90
18597;DHT22;9428;50.950;6.912;2024-03-23T18:45:45;7.20;99.90
18597;DHT22;9428;50.950;6.912;2024-03-23T18:48:33;7.10;99.90
18597;DHT22;9428;50.950;6.912;2024-03-23T18:51:19;6.90;99.90
18597;DHT22;9428;50.950;6.912;2024-03-23T18:54:06;6.90;99.90
18597;DHT22;9428;50.950;6.912;2024-03-23T18:56:54;7.00;99.90
18597;DHT22;9428;50.950;6.912;2024-03-23T18:59:42;6.90;99.90
18597;DHT22;9428;50.950;6.912;2024-03-23T19:02:28;7.40;99.90
18597;DHT22;9428;50.950;6.912;2024-03-23T19:05:15;7.10;99.90
18597;DHT22;9428;50.950;6.912;2024-03-23T19:08:02;7.00;99.90